Wednesday, January 17, 2018, 4:40 PM EST
Back to Local

KPQI, Presque Isle

Location: Presque Isle, ME, United States Lat: 46.683
Local Time: 4:40 PM EST (21:40 GMT) Lon: -68.05
Time Zone: US/Eastern Elev: 534 ft

Show me the last for .
Show Decoded

2018-01-17 15:56 METAR KPQI 172056Z AUTO 15003KT 10SM FEW044 M07/M09 A3015 RMK AO2 SLP256
                 T10721094 58021 FZRANO =
2018-01-17 14:56 METAR KPQI 171956Z AUTO 14005KT 10SM BKN049 M05/M09 A3017 RMK AO2 SLP263
                 T10501089 FZRANO =
2018-01-17 13:56 METAR KPQI 171856Z AUTO 12005KT 10SM FEW050 M04/M08 A3020 RMK AO2 SLP273
                 T10441083 FZRANO =
2018-01-17 12:56 METAR KPQI 171756Z AUTO 14005KT 10SM CLR M04/M09 A3021 RMK AO2 SLP278 60001
                 T10391089 11033 21133 58044 FZRANO =
2018-01-17 11:56 METAR KPQI 171656Z AUTO 13004KT 10SM FEW028 M03/M09 A3027 RMK AO2 SLP297
                 T10331094 FZRANO =
2018-01-17 11:49 METAR KPQI 171649Z AUTO 15003KT 10SM SCT028 M03/M09 A3027 RMK AO2 FZRANO =
2018-01-17 11:20 METAR KPQI 171620Z AUTO 00000KT 10SM BKN028 M04/M09 A3030 RMK AO2 FZRANO =
2018-01-17 10:56 METAR KPQI 171556Z AUTO 00000KT 10SM SCT034 M06/M11 A3032 RMK AO2 SNE39 SLP316
                 P0000 T10611106 FZRANO =
2018-01-17 10:19 METAR KPQI 171519Z AUTO 18003KT 3SM -SN SCT022 OVC036 M08/M11 A3035 RMK AO2
                 P0000 FZRANO =
2018-01-17 10:05 METAR KPQI 171505Z AUTO 00000KT 2 1/2SM -SN BKN022 BKN030 OVC036 M09/M12 A3035
                 RMK AO2 P0000 FZRANO =
2018-01-17 09:56 METAR KPQI 171456Z AUTO 00000KT 2SM -SN SCT026 OVC034 M09/M12 A3034 RMK AO2
                 SLP323 P0000 60001 T10941122 58003 FZRANO =
2018-01-17 09:39 METAR KPQI 171439Z AUTO 00000KT 2SM -SN BR BKN026 OVC036 M10/M12 A3035 RMK AO2
                 P0000 FZRANO =
2018-01-17 08:56 METAR KPQI 171356Z AUTO 00000KT 1 1/4SM -SN BR BKN022 OVC029 M11/M13 A3034 RMK
                 AO2 SLP325 P0000 T11061128 FZRANO =
2018-01-17 08:48 METAR KPQI 171348Z AUTO 00000KT 1 1/4SM -SN BR BKN022 BKN029 OVC036 M11/M13
                 A3035 RMK AO2 P0000 FZRANO =
2018-01-17 08:33 METAR KPQI 171333Z AUTO 00000KT 2SM -SN BR BKN028 OVC036 M12/M14 A3035 RMK AO2
                 VIS 1 3/4V3 P0000 FZRANO =
2018-01-17 08:17 METAR KPQI 171317Z AUTO 00000KT 1 1/2SM -SN BR BKN028 OVC034 M12/M14 A3035 RMK
                 AO2 P0000 FZRANO =
2018-01-17 08:08 METAR KPQI 171308Z AUTO 00000KT 1 3/4SM -SN BR OVC030 M12/M14 A3035 RMK AO2
                 P0000 FZRANO =
2018-01-17 07:56 METAR KPQI 171256Z AUTO 00000KT 2SM -SN BR SCT024 OVC034 M13/M14 A3035 RMK AO2
                 SLP325 P0001 T11281144 FZRANO =
2018-01-17 07:53 METAR KPQI 171253Z AUTO 00000KT 2SM -SN BR BKN024 OVC034 M13/M14 A3035 RMK AO2
                 P0001 FZRANO =
2018-01-17 07:38 METAR KPQI 171238Z AUTO 35003KT 1SM -SN BR OVC024 M13/M14 A3035 RMK AO2 P0001
                 FZRANO RVRNO =
2018-01-17 07:08 METAR KPQI 171208Z AUTO 00000KT 1 1/2SM -SN BR OVC024 M13/M15 A3036 RMK AO2
                 P0000 FZRANO =
2018-01-17 06:56 METAR KPQI 171156Z AUTO 00000KT 2SM -SN BR OVC024 M13/M16 A3036 RMK AO2 SLP328
                 P0000 60000 T11331156 11133 21183 58004 FZRANO =
2018-01-17 06:25 METAR KPQI 171125Z AUTO 00000KT 2 1/2SM -SN BR BKN026 OVC037 M14/M16 A3037 RMK
                 AO2 VIS 2 1/2V4 P0000 FZRANO =
2018-01-17 05:56 METAR KPQI 171056Z AUTO 00000KT 5SM -SN BR SCT040 BKN050 OVC060 M14/M16 A3037
                 RMK AO2 SNB14 SLP332 P0000 T11391156 FZRANO =
2018-01-17 04:56 METAR KPQI 170956Z AUTO 00000KT 10SM OVC032 M15/M17 A3037 RMK AO2 SLP333
                 T11501172 FZRANO =
2018-01-17 03:56 METAR KPQI 170856Z AUTO 00000KT 10SM OVC034 M16/M18 A3037 RMK AO2 SLP332
                 T11561178 58003 FZRANO =
2018-01-17 02:56 METAR KPQI 170756Z AUTO 00000KT 10SM OVC034 M17/M19 A3038 RMK AO2 SLP337
                 T11671189 FZRANO =
2018-01-17 01:56 METAR KPQI 170656Z AUTO 00000KT 10SM BKN034 OVC110 M18/M20 A3038 RMK AO2 SLP337
                 T11781200 FZRANO =
2018-01-17 00:56 METAR KPQI 170556Z AUTO 00000KT 10SM BKN110 M18/M21 A3038 RMK AO2 SLP337 60000
                 T11831206 11178 21200 56007 FZRANO =
2018-01-16 23:56 METAR KPQI 170456Z AUTO 00000KT 10SM CLR M19/M21 A3038 RMK AO2 SLP337 T11891211
                 410891200 FZRANO =
2018-01-16 22:56 METAR KPQI 170356Z AUTO 00000KT 10SM CLR M19/M21 A3039 RMK AO2 SNE24 SLP340
                 P0000 T11891211 FZRANO =
2018-01-16 21:56 METAR KPQI 170256Z AUTO 23003KT 9SM -SN OVC032 M19/M21 A3040 RMK AO2 SNB08
                 SLP344 P0000 60000 T11891211 58009 FZRANO =
2018-01-16 20:56 METAR KPQI 170156Z AUTO 00000KT 10SM CLR M19/M22 A3041 RMK AO2 SNB09E49 SLP349
                 P0000 T11941217 FZRANO =
2018-01-16 20:41 METAR KPQI 170141Z AUTO 25003KT 9SM -SN SCT028 M20/M22 A3041 RMK AO2 SNB09 P0000
                 FZRANO =
2018-01-16 19:56 METAR KPQI 170056Z AUTO 00000KT 10SM BKN028 M19/M22 A3042 RMK AO2 SLP353
                 T11941217 FZRANO =
2018-01-16 19:48 METAR KPQI 170048Z AUTO 00000KT 10SM BKN028 M19/M22 A3042 RMK AO2 FZRANO =
2018-01-16 18:56 METAR KPQI 162356Z AUTO 00000KT 10SM CLR M18/M21 A3043 RMK AO2 SLP354 60000
                 T11781206 11089 21178 53004 FZRANO =
2018-01-16 17:56 METAR KPQI 162256Z AUTO 00000KT 10SM CLR M18/M20 A3042 RMK AO2 SLP351 T11781200
                 FZRANO TSNO =
2018-01-16 16:56 METAR KPQI 162156Z AUTO 00000KT 10SM CLR M16/M18 A3042 RMK AO2 SLP349 T11561183
                 FZRANO =

Support USWX by starting your Amazon purchase here.